Time;durP1;ratioP1;P1;durP2;ratioP2;P2;SDS_P1;SDS_P2;PMS_P1;PMS_P2;Temp;Humidity;BMP_temperature;BMP_pressure;BME280_temperature;BME280_humidity;BME280_pressure;Samples;Min_cycle;Max_cycle;Signal;HPM_P1;HPM_P2
2024/04/14 00:01:57;;;;;;;10.60;6.10;;;;;;;14.79;60.00;100160.58;102702;1264;139171;-75
2024/04/14 00:04:24;;;;;;;7.90;6.10;;;;;;;14.80;59.93;100157.03;102867;1267;108057;-74
2024/04/14 00:06:51;;;;;;;10.70;5.80;;;;;;;14.80;60.04;100151.58;102733;1264;101146;-74
2024/04/14 00:09:18;;;;;;;14.70;6.10;;;;;;;14.81;60.08;100143.70;102666;1264;139488;-74
2024/04/14 00:11:45;;;;;;;11.60;5.90;;;;;;;14.81;60.10;100139.47;103363;1264;100781;-74
2024/04/14 00:14:15;;;;;;;9.20;5.70;;;;;;;14.82;60.20;100143.63;102891;1263;139520;-73
2024/04/14 00:16:43;;;;;;;7.10;5.40;;;;;;;14.83;60.20;100144.27;102670;1264;107210;-73
2024/04/14 00:19:10;;;;;;;8.50;5.60;;;;;;;14.83;60.20;100143.25;103464;1263;100497;-73
2024/04/14 00:21:38;;;;;;;7.90;5.70;;;;;;;14.84;60.24;100147.58;102637;1263;139263;-73
2024/04/14 00:24:06;;;;;;;8.50;5.50;;;;;;;14.84;60.38;100145.64;102780;1267;100524;-72
2024/04/14 00:26:33;;;;;;;6.90;5.50;;;;;;;14.83;60.38;100141.11;102708;1264;139274;-72
2024/04/14 00:29:00;;;;;;;8.90;5.80;;;;;;;14.83;60.40;100143.05;102872;1264;107193;-73
2024/04/14 00:31:27;;;;;;;9.60;5.50;;;;;;;14.82;60.42;100137.51;102813;1264;101483;-73
2024/04/14 00:33:54;;;;;;;10.40;5.90;;;;;;;14.80;60.66;100133.05;102757;1264;139170;-73
2024/04/14 00:36:21;;;;;;;11.60;6.50;;;;;;;14.79;60.66;100136.59;102941;1264;100526;-73
2024/04/14 00:38:48;;;;;;;9.00;5.50;;;;;;;14.78;60.66;100131.95;102678;1264;139811;-73
2024/04/14 00:41:15;;;;;;;11.80;5.90;;;;;;;14.77;60.76;100130.79;102695;1264;106308;-73
2024/04/14 00:43:42;;;;;;;14.30;6.30;;;;;;;14.76;60.70;100121.73;102732;1264;100724;-73
2024/04/14 00:46:09;;;;;;;12.10;5.90;;;;;;;14.75;60.79;100119.66;102742;1264;107189;-73
2024/04/14 00:48:36;;;;;;;11.90;5.90;;;;;;;14.74;60.96;100114.64;102822;1263;100624;-73
2024/04/14 00:51:04;;;;;;;9.00;6.00;;;;;;;14.73;61.06;100112.92;102699;1264;140984;-74
2024/04/14 00:53:31;;;;;;;12.50;6.00;;;;;;;14.70;61.17;100108.39;102781;1267;106912;-74
2024/04/14 00:55:59;;;;;;;12.30;6.30;;;;;;;14.70;61.23;100105.38;103019;1263;139896;-73
2024/04/14 00:58:27;;;;;;;9.60;5.60;;;;;;;14.71;61.37;100099.39;102861;1264;108019;-73
2024/04/14 01:00:54;;;;;;;10.40;6.40;;;;;;;14.71;61.52;100101.67;102633;1264;100637;-73
2024/04/14 01:03:21;;;;;;;11.90;6.20;;;;;;;14.70;61.36;100097.52;102855;1264;139518;-74
2024/04/14 01:05:49;;;;;;;10.20;5.70;;;;;;;14.70;61.62;100088.59;103039;1264;106398;-74
2024/04/14 01:08:16;;;;;;;7.50;5.20;;;;;;;14.71;61.58;100088.53;102707;1264;139449;-74
2024/04/14 01:10:44;;;;;;;14.20;6.00;;;;;;;14.72;61.70;100083.06;102945;1264;108360;-74
2024/04/14 01:13:11;;;;;;;11.50;5.70;;;;;;;14.72;61.79;100083.05;102764;1267;100526;-74
2024/04/14 01:15:37;;;;;;;12.60;5.90;;;;;;;14.71;61.79;100079.23;102607;1263;139822;-74
2024/04/14 01:18:05;;;;;;;9.60;5.60;;;;;;;14.70;62.04;100073.02;102691;1262;107231;-74
2024/04/14 01:20:32;;;;;;;8.30;5.30;;;;;;;14.69;62.01;100074.09;102644;1267;140150;-74
2024/04/14 01:22:58;;;;;;;9.40;6.30;;;;;;;14.69;62.01;100085.15;102667;1263;108022;-74
2024/04/14 01:25:25;;;;;;;9.70;5.80;;;;;;;14.69;62.09;100081.80;102744;1264;100657;-74
2024/04/14 01:27:52;;;;;;;8.70;5.90;;;;;;;14.71;62.13;100079.45;102656;1264;139162;-74
2024/04/14 01:30:20;;;;;;;8.70;5.70;;;;;;;14.71;62.12;100080.30;102501;1264;107012;-74
2024/04/14 01:32:46;;;;;;;8.10;5.80;;;;;;;14.71;62.22;100075.58;102614;1264;139045;-74
2024/04/14 01:35:13;;;;;;;8.80;6.00;;;;;;;14.70;62.23;100074.79;102942;1264;107221;-73
2024/04/14 01:37:40;;;;;;;10.00;6.00;;;;;;;14.69;62.33;100069.06;102957;1264;100519;-74
2024/04/14 01:40:11;;;;;;;13.40;5.40;;;;;;;14.68;62.39;100064.18;103013;1264;114324;-73
2024/04/14 01:42:38;;;;;;;7.90;5.20;;;;;;;14.67;62.47;100060.24;103651;1266;108300;-74
2024/04/14 01:45:08;;;;;;;10.10;5.80;;;;;;;14.64;62.57;100057.60;102873;1264;139189;-74
2024/04/14 01:47:35;;;;;;;8.70;5.20;;;;;;;14.62;62.66;100056.45;102726;1264;108022;-74
2024/04/14 01:50:02;;;;;;;10.80;5.60;;;;;;;14.62;62.72;100047.91;103601;1264;139329;-73
2024/04/14 01:52:29;;;;;;;7.60;5.40;;;;;;;14.64;62.88;100046.38;102837;1264;113826;-73
2024/04/14 01:54:55;;;;;;;9.90;5.80;;;;;;;14.63;62.78;100042.07;102928;1266;107991;-73
2024/04/14 01:57:23;;;;;;;9.90;6.10;;;;;;;14.60;62.93;100034.02;102791;1264;139457;-74
2024/04/14 01:59:50;;;;;;;11.30;5.40;;;;;;;14.58;62.93;100033.61;102835;1264;108276;-73
2024/04/14 02:02:17;;;;;;;7.70;5.60;;;;;;;14.56;63.04;100030.91;102587;1261;140398;-73
2024/04/14 02:04:44;;;;;;;8.80;5.90;;;;;;;14.55;63.16;100029.04;102832;1262;114369;-73
2024/04/14 02:07:11;;;;;;;7.50;5.60;;;;;;;14.54;63.15;100028.37;102907;1264;105511;-72
2024/04/14 02:09:38;;;;;;;9.60;5.70;;;;;;;14.52;63.28;100026.89;103131;1263;139280;-73
2024/04/14 02:12:07;;;;;;;9.90;5.90;;;;;;;14.51;63.30;100028.34;102906;1262;105955;-73
2024/04/14 02:14:34;;;;;;;11.20;5.70;;;;;;;14.49;63.40;100013.91;102744;1262;139778;-74
2024/04/14 02:17:01;;;;;;;12.50;6.00;;;;;;;14.46;63.48;100013.17;102806;1264;114028;-73
2024/04/14 02:19:28;;;;;;;7.00;5.50;;;;;;;14.46;63.63;100016.52;102819;1266;107363;-72
2024/04/14 02:21:54;;;;;;;8.10;5.70;;;;;;;14.44;63.76;100010.52;103149;1261;139773;-73
2024/04/14 02:24:22;;;;;;;9.20;5.50;;;;;;;14.42;63.78;100007.27;103003;1267;106648;-75
2024/04/14 02:26:49;;;;;;;8.40;5.60;;;;;;;14.41;63.91;99999.27;102682;1262;139414;-74
2024/04/14 02:29:16;;;;;;;10.80;6.00;;;;;;;14.39;64.03;99999.54;102813;1266;113075;-74
2024/04/14 02:31:42;;;;;;;9.50;5.70;;;;;;;14.37;64.12;99995.12;102760;1264;107303;-75
2024/04/14 02:34:09;;;;;;;8.60;5.90;;;;;;;14.35;64.13;99990.98;102653;1266;138771;-74
2024/04/14 02:36:36;;;;;;;6.90;5.70;;;;;;;14.34;64.28;99982.48;102750;1262;107003;-74
2024/04/14 02:39:04;;;;;;;7.90;5.90;;;;;;;14.32;64.40;99981.88;102686;1263;138849;-75
2024/04/14 02:41:31;;;;;;;8.30;5.70;;;;;;;14.30;64.48;99980.79;102768;1266;113032;-74
2024/04/14 02:43:58;;;;;;;8.70;5.70;;;;;;;14.27;64.45;99979.33;102693;1262;139077;-75
2024/04/14 02:46:25;;;;;;;8.30;5.40;;;;;;;14.25;64.61;99973.88;102857;1262;100560;-73
2024/04/14 02:48:52;;;;;;;10.20;6.00;;;;;;;14.22;64.74;99972.61;102823;1262;107646;-75
2024/04/14 02:51:20;;;;;;;8.70;5.90;;;;;;;14.20;64.81;99975.33;102684;1264;139167;-72
2024/04/14 02:53:46;;;;;;;8.90;6.10;;;;;;;14.17;64.89;99972.53;102791;1261;113979;-75
2024/04/14 02:56:14;;;;;;;7.60;5.90;;;;;;;14.13;65.14;99968.20;102734;1261;139300;-75
2024/04/14 02:58:41;;;;;;;8.50;5.70;;;;;;;14.07;65.28;99963.59;102819;1261;100547;-75
2024/04/14 03:01:10;;;;;;;9.20;5.90;;;;;;;14.03;65.42;99956.12;102875;1262;107796;-72
2024/04/14 03:03:37;;;;;;;10.10;6.10;;;;;;;13.97;65.57;99958.84;102772;1264;139362;-72
2024/04/14 03:06:05;;;;;;;7.80;5.50;;;;;;;13.94;65.72;99957.42;102825;1263;114189;-72
2024/04/14 03:08:32;;;;;;;8.30;6.00;;;;;;;13.90;65.75;99950.29;102782;1264;139035;-73
2024/04/14 03:11:00;;;;;;;10.20;5.80;;;;;;;13.88;66.00;99948.67;102969;1264;100511;-73
2024/04/14 03:13:27;;;;;;;7.90;5.70;;;;;;;13.85;66.29;99939.20;102861;1264;106876;-75
2024/04/14 03:15:55;;;;;;;10.30;6.40;;;;;;;13.82;66.34;99937.57;102629;1263;139679;-74
2024/04/14 03:18:22;;;;;;;8.40;5.90;;;;;;;13.80;66.40;99935.95;102880;1264;114558;-72
2024/04/14 03:20:57;;;;;;;9.00;5.80;;;;;;;13.79;66.58;99927.27;103059;1264;139539;-73
2024/04/14 03:23:25;;;;;;;8.70;6.30;;;;;;;13.77;66.69;99919.84;102933;1267;100599;-73
2024/04/14 03:25:52;;;;;;;8.90;6.00;;;;;;;13.76;66.86;99911.67;102651;1263;139558;-72
2024/04/14 03:28:19;;;;;;;8.90;5.50;;;;;;;13.75;67.09;99908.58;102874;1264;100611;-73
2024/04/14 03:30:46;;;;;;;9.00;5.60;;;;;;;13.75;67.00;99902.29;102705;1263;114074;-72
2024/04/14 03:33:13;;;;;;;7.10;5.30;;;;;;;13.75;66.93;99900.39;102783;1267;139093;-74
2024/04/14 03:35:41;;;;;;;7.90;5.60;;;;;;;13.76;67.11;99902.05;102810;1269;100609;-73
2024/04/14 03:38:08;;;;;;;6.30;5.20;;;;;;;13.78;67.07;99903.87;102668;1264;139153;-73
2024/04/14 03:40:35;;;;;;;6.90;5.20;;;;;;;13.81;66.99;99901.81;102949;1267;100622;-72
2024/04/14 03:43:02;;;;;;;11.50;5.40;;;;;;;13.83;66.95;99898.73;103081;1264;113276;-73
2024/04/14 03:45:30;;;;;;;7.40;5.10;;;;;;;13.85;66.98;99901.60;102656;1264;139224;-74
2024/04/14 03:47:57;;;;;;;7.30;5.20;;;;;;;13.88;66.77;99894.80;102662;1264;100526;-74
2024/04/14 03:50:24;;;;;;;8.30;5.40;;;;;;;13.91;66.79;99890.30;102558;1263;139077;-73
2024/04/14 03:52:51;;;;;;;9.50;5.30;;;;;;;13.94;66.75;99881.42;102675;1264;100370;-73
2024/04/14 03:55:18;;;;;;;7.90;4.90;;;;;;;13.96;66.62;99876.77;102705;1263;113189;-73
2024/04/14 03:57:45;;;;;;;8.10;4.70;;;;;;;14.00;66.91;99872.91;102701;1263;138989;-73
2024/04/14 04:00:13;;;;;;;9.20;5.30;;;;;;;14.02;66.58;99863.36;102751;1264;100452;-73
2024/04/14 04:02:41;;;;;;;7.80;4.70;;;;;;;14.05;66.57;99860.58;102626;1264;139728;-74
2024/04/14 04:05:09;;;;;;;6.30;4.50;;;;;;;14.06;66.49;99855.09;102623;1263;100705;-74
2024/04/14 04:07:35;;;;;;;7.50;4.70;;;;;;;14.09;66.50;99850.73;102643;1264;115301;-74
2024/04/14 04:10:02;;;;;;;9.10;4.70;;;;;;;14.12;66.26;99845.14;102434;1263;138728;-73
2024/04/14 04:12:34;;;;;;;7.10;4.90;;;;;;;14.15;66.07;99832.38;102605;1267;101035;-73
2024/04/14 04:15:04;;;;;;;7.60;4.80;;;;;;;14.18;66.02;99832.06;102441;1264;139816;-72
2024/04/14 04:17:31;;;;;;;7.70;4.40;;;;;;;14.20;65.94;99825.48;102609;1269;100637;-74
2024/04/14 04:19:58;;;;;;;9.70;4.70;;;;;;;14.23;66.08;99822.40;102673;1267;139181;-73
2024/04/14 04:22:25;;;;;;;6.30;4.70;;;;;;;14.24;66.02;99820.91;102660;1266;108317;-73
2024/04/14 04:24:52;;;;;;;8.30;5.00;;;;;;;14.25;65.79;99820.86;103344;1264;100571;-74
2024/04/14 04:27:19;;;;;;;8.80;4.70;;;;;;;14.27;65.87;99818.30;102540;1264;138900;-74
2024/04/14 04:29:46;;;;;;;7.30;4.50;;;;;;;14.28;65.77;99820.69;102696;1264;100538;-74
2024/04/14 04:32:16;;;;;;;7.10;4.80;;;;;;;14.30;65.79;99815.35;102464;1269;139379;-74
2024/04/14 04:34:43;;;;;;;7.00;4.70;;;;;;;14.33;65.73;99813.39;102516;1266;107632;-74
2024/04/14 04:37:09;;;;;;;6.50;4.70;;;;;;;14.36;65.73;99810.81;102648;1264;100531;-74
2024/04/14 04:39:36;;;;;;;7.20;4.60;;;;;;;14.38;65.54;99811.05;102499;1267;138939;-74
2024/04/14 04:42:03;;;;;;;9.60;4.80;;;;;;;14.41;65.51;99807.55;102657;1264;101202;-74
2024/04/14 04:44:30;;;;;;;9.90;5.00;;;;;;;14.44;65.51;99810.41;102530;1267;141198;-74
2024/04/14 04:46:56;;;;;;;9.10;4.70;;;;;;;14.45;65.47;99807.34;102615;1264;107936;-73
2024/04/14 04:49:23;;;;;;;5.80;4.20;;;;;;;14.47;65.33;99802.02;102616;1267;100635;-75
2024/04/14 04:51:50;;;;;;;6.60;4.90;;;;;;;14.49;65.32;99795.25;102661;1264;138896;-73
2024/04/14 04:54:17;;;;;;;6.10;4.90;;;;;;;14.52;65.20;99790.55;102924;1267;100522;-74
2024/04/14 04:56:44;;;;;;;6.80;4.90;;;;;;;14.52;65.20;99786.48;103146;1263;139128;-74
2024/04/14 04:59:11;;;;;;;9.10;5.30;;;;;;;14.54;65.11;99784.31;102614;1267;109362;-74
2024/04/14 05:01:37;;;;;;;6.60;4.70;;;;;;;14.58;65.08;99785.89;103065;1264;100562;-75
2024/04/14 05:04:05;;;;;;;8.20;4.90;;;;;;;14.61;65.01;99788.63;102648;1267;140151;-76
2024/04/14 05:06:32;;;;;;;7.00;5.10;;;;;;;14.65;64.88;99787.91;102450;1264;100529;-75
2024/04/14 05:08:59;;;;;;;10.40;5.30;;;;;;;14.69;64.83;99786.79;102548;1265;138878;-74
2024/04/14 05:11:26;;;;;;;9.00;4.60;;;;;;;14.74;64.79;99783.17;102756;1265;107974;-75
2024/04/14 05:13:53;;;;;;;10.10;5.10;;;;;;;14.79;64.70;99782.89;102698;1264;139257;-73
2024/04/14 05:16:20;;;;;;;9.20;5.30;;;;;;;14.86;64.62;99783.54;102917;1264;107815;-74
2024/04/14 05:18:47;;;;;;;7.40;5.20;;;;;;;14.93;64.37;99772.82;103044;1264;100529;-75
2024/04/14 05:21:15;;;;;;;6.00;4.90;;;;;;;15.00;64.37;99774.30;102660;1264;147566;-76
2024/04/14 05:23:42;;;;;;;8.30;5.20;;;;;;;15.06;64.24;99770.83;102660;1269;108646;-74
2024/04/14 05:26:09;;;;;;;7.00;4.90;;;;;;;15.15;64.09;99766.84;102614;1264;140148;-75
2024/04/14 05:28:36;;;;;;;7.50;5.30;;;;;;;15.26;64.01;99762.11;102603;1264;107167;-74
2024/04/14 05:31:03;;;;;;;6.60;5.50;;;;;;;15.40;63.81;99764.05;102547;1267;100522;-74
2024/04/14 05:33:29;;;;;;;8.90;5.60;;;;;;;15.53;63.49;99762.42;102473;1264;139834;-74
2024/04/14 05:35:58;;;;;;;7.70;5.80;;;;;;;15.69;63.22;99765.15;102629;1270;107674;-74
2024/04/14 05:38:25;;;;;;;9.40;5.80;;;;;;;15.81;62.88;99758.83;102675;1266;140559;-73
2024/04/14 05:40:52;;;;;;;8.40;5.90;;;;;;;15.94;62.67;99754.14;103077;1264;108736;-73
2024/04/14 05:43:19;;;;;;;10.80;6.20;;;;;;;16.08;62.43;99753.97;102721;1264;100523;-72
2024/04/14 05:45:48;;;;;;;8.50;6.00;;;;;;;16.22;62.09;99746.42;102587;1264;139229;-71
2024/04/14 05:48:16;;;;;;;11.40;5.90;;;;;;;16.45;61.92;99742.36;102946;1267;107325;-72
2024/04/14 05:50:43;;;;;;;10.20;6.40;;;;;;;16.75;61.56;99746.54;102799;1264;139353;-70
2024/04/14 05:53:12;;;;;;;9.80;6.10;;;;;;;17.15;61.16;99742.14;102769;1265;107603;-67
2024/04/14 05:55:39;;;;;;;8.80;6.00;;;;;;;17.66;60.19;99732.34;102711;1264;100565;-67
2024/04/14 05:58:06;;;;;;;9.70;6.10;;;;;;;18.18;59.14;99733.38;102609;1269;139277;-69
2024/04/14 06:00:35;;;;;;;10.40;6.20;;;;;;;18.68;57.81;99723.75;102763;1264;107853;-68
2024/04/14 06:03:02;;;;;;;8.50;6.00;;;;;;;19.08;56.66;99714.27;102704;1267;138569;-68
2024/04/14 06:05:30;;;;;;;6.90;4.70;;;;;;;19.33;56.28;99703.17;102576;1266;107608;-69
2024/04/14 06:07:58;;;;;;;10.20;5.60;;;;;;;19.71;55.33;99701.98;102496;1267;138483;-66
2024/04/14 06:10:25;;;;;;;6.50;5.60;;;;;;;19.96;53.91;99697.35;102685;1267;115451;-67
2024/04/14 06:12:52;;;;;;;9.40;5.20;;;;;;;20.34;53.20;99690.09;102604;1265;106885;-71
2024/04/14 06:15:19;;;;;;;7.50;5.30;;;;;;;20.69;52.08;99692.01;102584;1269;138761;-69
2024/04/14 06:17:46;;;;;;;10.40;5.50;;;;;;;20.98;51.41;99687.77;102601;1265;108058;-69
2024/04/14 06:20:13;;;;;;;7.40;4.90;;;;;;;21.38;50.69;99677.35;102397;1266;138504;-68
2024/04/14 06:22:40;;;;;;;8.50;5.00;;;;;;;21.90;50.06;99685.73;102563;1265;113228;-68
2024/04/14 06:25:07;;;;;;;7.70;4.80;;;;;;;22.39;49.15;99684.15;102579;1267;105765;-69
2024/04/14 06:27:34;;;;;;;9.90;5.40;;;;;;;22.91;48.34;99689.17;102455;1264;138484;-69
2024/04/14 06:30:01;;;;;;;6.70;4.80;;;;;;;23.25;47.47;99688.53;102613;1264;107464;-70
2024/04/14 06:32:28;;;;;;;5.70;4.80;;;;;;;23.54;46.37;99685.77;102399;1266;138546;-67
2024/04/14 06:34:55;;;;;;;6.30;5.10;;;;;;;23.95;45.75;99677.05;102681;1268;113668;-68
2024/04/14 06:37:22;;;;;;;8.70;5.70;;;;;;;24.14;45.13;99675.21;102413;1267;108061;-68
2024/04/14 06:39:49;;;;;;;9.20;4.70;;;;;;;24.07;44.27;99674.38;102590;1265;138377;-66
2024/04/14 06:42:16;;;;;;;10.90;5.10;;;;;;;23.97;43.66;99669.95;102675;1265;108318;-66
2024/04/14 06:44:43;;;;;;;12.30;5.90;;;;;;;24.01;43.90;99663.14;102608;1264;138541;-66
2024/04/14 06:47:10;;;;;;;8.30;5.30;;;;;;;24.21;43.93;99657.44;102685;1264;114052;-66
2024/04/14 06:49:38;;;;;;;6.30;4.20;;;;;;;24.32;43.61;99652.65;102793;1269;107861;-66
2024/04/14 06:52:06;;;;;;;9.30;4.60;;;;;;;24.19;43.30;99652.52;102558;1267;139017;-67
2024/04/14 06:54:33;;;;;;;7.70;5.00;;;;;;;24.25;43.40;99646.05;102749;1265;107734;-66
2024/04/14 06:57:00;;;;;;;5.90;3.90;;;;;;;24.34;43.48;99646.10;102634;1269;138230;-74
2024/04/14 06:59:27;;;;;;;7.50;4.20;;;;;;;24.49;43.59;99644.68;102786;1267;113312;-75
2024/04/14 07:01:54;;;;;;;6.90;4.60;;;;;;;24.76;42.87;99634.57;102403;1265;138401;-73
2024/04/14 07:04:21;;;;;;;12.00;4.60;;;;;;;24.97;42.65;99636.88;102678;1267;100444;-74
2024/04/14 07:06:48;;;;;;;7.00;4.30;;;;;;;25.08;42.02;99638.23;103054;1267;108136;-74
2024/04/14 07:09:15;;;;;;;6.70;4.10;;;;;;;24.99;41.83;99637.93;103760;1267;138130;-73
2024/04/14 07:11:42;;;;;;;7.30;4.60;;;;;;;24.87;41.92;99632.39;103166;1264;113563;-72
2024/04/14 07:14:09;;;;;;;7.20;4.50;;;;;;;24.80;41.81;99622.59;102496;1267;138422;-73
2024/04/14 07:16:36;;;;;;;9.80;4.50;;;;;;;24.86;41.60;99613.21;102734;1267;100778;-73
2024/04/14 07:19:03;;;;;;;5.80;4.00;;;;;;;24.95;41.30;99608.55;102669;1267;107698;-75
2024/04/14 07:21:30;;;;;;;7.30;4.10;;;;;;;25.00;40.83;99607.80;102458;1272;138461;-74
2024/04/14 07:23:57;;;;;;;7.30;4.20;;;;;;;25.05;41.24;99606.94;102640;1269;113612;-73
2024/04/14 07:26:24;;;;;;;7.60;4.20;;;;;;;24.90;41.10;99604.33;102300;1268;138351;-75
2024/04/14 07:28:50;;;;;;;9.10;4.30;;;;;;;24.74;41.26;99610.93;102625;1267;101258;-74
2024/04/14 07:31:17;;;;;;;7.90;4.50;;;;;;;24.61;41.60;99615.58;102634;1269;109153;-74
2024/04/14 07:33:46;;;;;;;8.10;4.50;;;;;;;24.65;41.52;99620.56;102598;1267;138865;-74
2024/04/14 07:36:13;;;;;;;7.80;4.50;;;;;;;24.55;41.52;99620.98;102480;1266;114851;-75
2024/04/14 07:38:41;;;;;;;8.90;4.20;;;;;;;24.47;41.63;99619.35;102535;1266;138265;-74
2024/04/14 07:41:08;;;;;;;7.90;4.20;;;;;;;24.53;41.67;99607.72;102601;1267;101179;-74
2024/04/14 07:43:35;;;;;;;6.80;4.30;;;;;;;24.62;41.90;99609.64;102746;1267;108267;-74
2024/04/14 07:46:02;;;;;;;9.30;4.20;;;;;;;24.69;41.41;99602.52;102795;1270;140658;-75
2024/04/14 07:48:29;;;;;;;14.80;4.30;;;;;;;24.67;41.46;99606.88;102685;1267;113816;-74
2024/04/14 07:50:56;;;;;;;5.80;3.90;;;;;;;24.78;41.36;99608.46;102386;1266;138396;-74
2024/04/14 07:53:23;;;;;;;9.70;4.00;;;;;;;24.66;41.57;99608.84;102399;1267;100596;-75
2024/04/14 07:55:54;;;;;;;5.00;3.70;;;;;;;24.69;41.51;99606.06;102636;1265;108686;-73
2024/04/14 07:58:21;;;;;;;6.10;4.10;;;;;;;24.87;41.52;99599.07;102704;1267;100529;-73
2024/04/14 08:00:47;;;;;;;6.10;4.00;;;;;;;25.38;41.01;99601.32;102614;1267;114646;-73
2024/04/14 08:03:15;;;;;;;6.90;4.40;;;;;;;25.69;40.03;99598.05;102457;1267;138241;-73
2024/04/14 08:05:42;;;;;;;10.30;4.20;;;;;;;25.93;40.10;99589.66;102818;1267;100949;-74
2024/04/14 08:08:09;;;;;;;9.60;4.20;;;;;;;26.34;39.53;99592.06;102556;1264;139999;-74
2024/04/14 08:10:36;;;;;;;10.60;4.90;;;;;;;26.79;38.79;99597.98;102629;1264;100557;-74
2024/04/14 08:13:03;;;;;;;8.10;4.10;;;;;;;27.30;38.58;99593.55;102784;1265;114408;-72
2024/04/14 08:15:31;;;;;;;8.20;4.50;;;;;;;27.96;37.84;99591.98;102701;1264;139366;-73
2024/04/14 08:17:58;;;;;;;10.80;4.60;;;;;;;28.33;36.88;99582.09;102821;1267;100490;-74
2024/04/14 08:20:25;;;;;;;11.50;4.10;;;;;;;28.42;36.23;99579.95;102742;1263;139066;-75
2024/04/14 08:22:52;;;;;;;9.40;3.90;;;;;;;28.59;35.96;99582.38;102709;1264;100523;-73
2024/04/14 08:25:19;;;;;;;6.00;3.60;;;;;;;29.04;36.14;99577.48;102612;1264;114514;-74
2024/04/14 08:27:46;;;;;;;7.70;4.00;;;;;;;29.63;35.03;99576.32;102627;1263;138479;-74
2024/04/14 08:30:13;;;;;;;8.50;3.60;;;;;;;30.08;34.58;99579.17;102548;1263;100529;-74
2024/04/14 08:32:40;;;;;;;7.10;3.70;;;;;;;30.14;34.08;99577.95;102521;1265;138800;-73
2024/04/14 08:35:09;;;;;;;8.50;3.40;;;;;;;30.24;33.67;99576.46;102701;1264;100555;-74
2024/04/14 08:37:36;;;;;;;10.30;3.70;;;;;;;30.32;33.48;99579.02;102839;1264;114924;-72
2024/04/14 08:40:03;;;;;;;6.90;3.90;;;;;;;29.92;33.23;99581.76;102776;1264;138286;-74
2024/04/14 08:42:33;;;;;;;5.80;3.70;;;;;;;29.11;33.84;99583.03;102800;1264;100602;-74
2024/04/14 08:45:01;;;;;;;5.90;4.20;;;;;;;28.17;34.44;99583.77;102698;1267;138256;-74
2024/04/14 08:47:29;;;;;;;6.90;4.20;;;;;;;27.25;35.38;99591.65;102709;1263;100625;-74
2024/04/14 08:49:58;;;;;;;6.80;3.80;;;;;;;26.40;36.11;99602.60;102662;1263;138618;-72
2024/04/14 08:52:27;;;;;;;6.40;4.30;;;;;;;25.66;37.26;99590.92;102781;1267;106968;-74
2024/04/14 08:54:54;;;;;;;6.40;4.00;;;;;;;25.17;37.97;99584.80;102721;1264;100528;-73
2024/04/14 08:57:21;;;;;;;8.30;4.50;;;;;;;25.08;38.95;99585.91;102571;1264;138905;-75
2024/04/14 08:59:52;;;;;;;9.80;4.20;;;;;;;25.64;39.03;99584.92;102743;1267;100412;-73
2024/04/14 09:02:19;;;;;;;8.00;4.10;;;;;;;25.78;38.72;99583.73;102572;1263;138550;-75
2024/04/14 09:04:47;;;;;;;13.40;3.80;;;;;;;25.53;38.72;99586.42;102685;1267;105869;-73
2024/04/14 09:07:14;;;;;;;13.40;4.60;;;;;;;25.08;39.01;99595.48;102723;1264;100943;-75
2024/04/14 09:09:42;;;;;;;8.50;4.10;;;;;;;24.51;39.57;99586.95;102646;1267;138327;-73
2024/04/14 09:12:12;;;;;;;7.80;4.70;;;;;;;24.09;40.39;99594.16;102789;1270;100554;-72
2024/04/14 09:14:39;;;;;;;9.70;4.60;;;;;;;23.75;40.96;99591.64;102834;1264;138217;-72
2024/04/14 09:17:06;;;;;;;12.90;4.70;;;;;;;23.38;41.65;99587.00;102847;1267;108031;-72
2024/04/14 09:19:39;;;;;;;8.50;4.70;;;;;;;22.95;42.27;99591.30;102874;1263;100392;-72
2024/04/14 09:22:07;;;;;;;8.30;4.60;;;;;;;22.63;43.15;99583.09;102654;1263;138019;-73
2024/04/14 09:24:34;;;;;;;7.10;4.60;;;;;;;22.59;43.64;99591.11;102845;1265;100418;-75
2024/04/14 09:27:03;;;;;;;6.60;4.60;;;;;;;23.00;44.17;99594.02;102638;1265;138215;-74
2024/04/14 09:29:30;;;;;;;9.00;4.60;;;;;;;23.92;43.92;99592.69;102637;1264;108420;-74
2024/04/14 09:31:56;;;;;;;8.10;3.90;;;;;;;24.57;43.08;99582.29;102589;1265;138519;-74
2024/04/14 09:34:28;;;;;;;10.50;4.40;;;;;;;25.42;42.43;99580.44;102743;1264;108267;-74
2024/04/14 09:36:55;;;;;;;8.70;4.30;;;;;;;26.29;40.89;99583.46;102685;1267;100527;-74
2024/04/14 09:39:22;;;;;;;9.50;4.90;;;;;;;26.86;39.52;99584.50;102620;1264;138368;-73
2024/04/14 09:41:50;;;;;;;8.40;4.20;;;;;;;27.18;39.01;99587.61;102798;1267;107667;-73
2024/04/14 09:44:19;;;;;;;10.40;4.60;;;;;;;27.34;38.99;99598.77;102551;1265;139679;-73
2024/04/14 09:46:50;;;;;;;9.70;4.60;;;;;;;27.33;38.60;99603.09;102860;1265;108227;-73
2024/04/14 09:49:20;;;;;;;6.80;4.50;;;;;;;27.37;38.31;99596.48;102732;1265;100539;-73
2024/04/14 09:51:50;;;;;;;6.90;4.70;;;;;;;27.38;37.90;99593.56;102576;1265;138405;-74
2024/04/14 09:54:18;;;;;;;9.70;5.00;;;;;;;27.22;37.88;99590.30;102555;1263;109753;-75
2024/04/14 09:56:45;;;;;;;7.00;4.50;;;;;;;27.36;38.15;99588.83;102467;1265;139619;-74
2024/04/14 09:59:12;;;;;;;5.90;4.60;;;;;;;27.37;38.11;99585.64;102511;1263;107100;-73
2024/04/14 10:01:41;;;;;;;9.00;4.80;;;;;;;27.26;38.02;99582.73;102408;1267;100509;-73
2024/04/14 10:04:10;;;;;;;5.30;4.30;;;;;;;26.86;38.02;99582.23;102739;1265;138366;-74
2024/04/14 10:06:38;;;;;;;14.70;5.10;;;;;;;26.22;38.45;99584.77;102499;1265;106983;-73
2024/04/14 10:09:05;;;;;;;11.50;5.00;;;;;;;25.67;38.75;99578.73;102535;1265;138468;-73
2024/04/14 10:11:33;;;;;;;10.80;5.20;;;;;;;25.19;39.31;99576.26;102580;1264;107492;-73
2024/04/14 10:14:01;;;;;;;11.70;4.90;;;;;;;24.66;40.14;99576.36;102552;1264;139339;-73
2024/04/14 10:16:28;;;;;;;8.30;5.20;;;;;;;24.16;40.75;99574.46;102838;1263;113614;-74
2024/04/14 10:19:03;;;;;;;11.00;5.20;;;;;;;23.69;41.72;99589.34;102944;1267;107416;-73
2024/04/14 10:21:32;;;;;;;7.80;5.00;;;;;;;23.17;42.64;99592.95;102633;1265;138529;-73
2024/04/14 10:24:02;;;;;;;9.30;5.00;;;;;;;22.67;43.77;99594.95;102793;1267;107740;-73
2024/04/14 10:26:32;;;;;;;11.60;5.20;;;;;;;22.25;44.73;99607.99;102927;1266;139455;-73
2024/04/14 10:28:59;;;;;;;9.10;5.00;;;;;;;22.12;45.42;99601.23;102654;1265;114602;-73
2024/04/14 10:31:29;;;;;;;12.90;5.00;;;;;;;22.02;45.83;99613.81;102770;1265;106943;-73
2024/04/14 10:34:09;;;;;;;14.00;4.60;;;;;;;22.22;46.09;99614.69;102619;1264;138422;-73
2024/04/14 10:36:39;;;;;;;14.10;4.70;;;;;;;22.65;45.53;99600.31;103140;1267;107945;-74
2024/04/14 10:39:09;;;;;;;14.40;4.90;;;;;;;22.86;45.07;99610.77;102407;1265;138586;-74
2024/04/14 10:41:37;;;;;;;11.60;4.60;;;;;;;22.98;44.42;99610.37;103277;1265;113430;-73
2024/04/14 10:44:14;;;;;;;8.00;3.90;;;;;;;23.15;44.30;99609.11;102266;1267;140125;-73
2024/04/14 10:46:41;;;;;;;7.90;4.00;;;;;;;23.64;43.17;99601.18;102683;1265;100462;-74
2024/04/14 10:49:08;;;;;;;9.40;3.90;;;;;;;24.05;41.90;99601.29;102990;1265;107140;-74
2024/04/14 10:51:36;;;;;;;8.90;3.60;;;;;;;24.46;41.74;99606.14;102678;1265;138972;-73
2024/04/14 10:54:04;;;;;;;12.20;3.30;;;;;;;24.75;40.34;99592.40;102858;1264;114325;-74
2024/04/14 10:56:31;;;;;;;9.90;3.30;;;;;;;24.85;40.05;99603.27;102609;1264;140910;-74
2024/04/14 10:58:58;;;;;;;13.00;3.60;;;;;;;24.72;39.14;99598.85;102699;1265;100417;-74
2024/04/14 11:01:26;;;;;;;10.90;3.30;;;;;;;24.45;38.91;99599.33;102692;1267;108560;-72
2024/04/14 11:03:54;;;;;;;8.50;3.10;;;;;;;24.20;38.91;99596.91;102722;1264;138599;-73
2024/04/14 11:06:21;;;;;;;9.20;3.60;;;;;;;23.93;39.33;99593.64;102754;1264;114020;-73
2024/04/14 11:08:48;;;;;;;8.30;3.30;;;;;;;23.74;39.69;99591.06;102522;1267;138206;-73
2024/04/14 11:11:16;;;;;;;6.70;3.40;;;;;;;23.60;39.93;99591.16;102717;1267;100532;-73
2024/04/14 11:13:43;;;;;;;8.20;3.30;;;;;;;23.40;40.23;99594.95;102713;1265;107434;-73
2024/04/14 11:16:10;;;;;;;8.60;3.50;;;;;;;23.11;40.36;99585.33;102742;1264;138723;-73